Time;durP1;ratioP1;P1;durP2;ratioP2;P2;SDS_P1;SDS_P2;PMS_P1;PMS_P2;Temp;Humidity;BMP_temperature;BMP_pressure;BME280_temperature;BME280_humidity;BME280_pressure;Samples;Min_cycle;Max_cycle;Signal;HPM_P1;HPM_P2
2022/12/01 00:01:17;;;;;;;0.20;0.20;;;15.20;87.70;;;;;;4193645;28;20059;-56
2022/12/01 00:03:58;;;;;;;0.47;0.47;;;15.20;87.80;;;;;;4194023;28;20062;-54
2022/12/01 00:06:41;;;;;;;1.48;1.48;;;15.20;87.80;;;;;;4208211;28;20451;-56
2022/12/01 00:12:20;;;;;;;0.08;0.08;;;15.10;87.90;;;;;;4176698;28;20098;-60
2022/12/01 00:15:01;;;;;;;0.35;0.35;;;15.10;88.00;;;;;;4179284;28;20056;-61
2022/12/01 00:17:44;;;;;;;2.58;2.22;;;15.10;88.10;;;;;;4210427;28;20047;-61
2022/12/01 00:20:25;;;;;;;1.55;1.55;;;15.10;88.20;;;;;;4210035;28;20047;-56
2022/12/01 00:23:07;;;;;;;0.73;0.73;;;15.10;88.30;;;;;;4192900;28;20059;-56
2022/12/01 00:25:48;;;;;;;0.55;0.52;;;15.10;88.40;;;;;;4192133;28;20507;-53
2022/12/01 00:28:29;;;;;;;0.88;0.88;;;15.10;88.50;;;;;;4193448;28;20174;-59
2022/12/01 00:31:12;;;;;;;2.58;1.58;;;15.00;88.50;;;;;;4193322;28;20545;-56
2022/12/01 00:33:53;;;;;;;2.00;1.65;;;15.00;88.50;;;;;;4193319;28;20064;-57
2022/12/01 00:36:35;;;;;;;1.05;1.00;;;15.00;88.60;;;;;;4193281;28;20618;-56
2022/12/01 00:39:17;;;;;;;0.08;0.08;;;15.00;88.70;;;;;;4193254;28;20127;-56
2022/12/01 00:41:58;;;;;;;0.93;0.93;;;15.00;88.70;;;;;;4193374;28;20183;-55
2022/12/01 00:44:39;;;;;;;0.20;0.20;;;15.00;88.80;;;;;;4195786;28;20062;-56
2022/12/01 00:47:20;;;;;;;1.83;1.73;;;15.00;88.90;;;;;;4209989;28;20438;-56
2022/12/01 00:50:01;;;;;;;3.10;2.83;;;14.90;88.90;;;;;;4209610;28;20529;-56
2022/12/01 00:52:42;;;;;;;0.28;0.28;;;14.90;89.10;;;;;;4206175;28;20116;-55
2022/12/01 00:55:25;;;;;;;0.15;0.15;;;14.90;89.00;;;;;;4192791;28;20098;-56
2022/12/01 00:58:06;;;;;;;8.63;0.80;;;14.90;89.00;;;;;;4192060;28;20388;-60
2022/12/01 01:00:47;;;;;;;1.02;1.02;;;14.90;89.10;;;;;;4192541;28;20043;-59
2022/12/01 01:03:29;;;;;;;1.30;0.67;;;14.90;89.10;;;;;;4175077;28;20110;-61
2022/12/01 01:06:11;;;;;;;0.70;0.57;;;14.90;89.10;;;;;;4175382;28;20332;-60
2022/12/01 01:08:52;;;;;;;0.65;0.65;;;14.90;89.10;;;;;;4175254;28;20075;-61
2022/12/01 01:11:35;;;;;;;0.73;0.73;;;14.90;90.00;;;;;;4176374;28;20056;-60
2022/12/01 01:14:16;;;;;;;0.00;0.00;;;14.90;89.30;;;;;;4174973;28;20051;-60
2022/12/01 01:16:57;;;;;;;2.05;1.95;;;14.90;89.30;;;;;;4176505;28;20199;-59
2022/12/01 01:19:38;;;;;;;0.20;0.20;;;14.90;89.30;;;;;;4178713;28;20056;-60
2022/12/01 01:22:19;;;;;;;0.95;0.95;;;14.90;89.40;;;;;;4192770;28;20079;-59
2022/12/01 01:25:00;;;;;;;0.82;0.65;;;14.90;89.40;;;;;;4192730;28;20059;-59
2022/12/01 01:27:43;;;;;;;6.03;1.65;;;14.90;89.50;;;;;;4176102;28;20052;-60
2022/12/01 01:30:24;;;;;;;0.73;0.73;;;14.80;89.50;;;;;;4174959;28;20099;-60
2022/12/01 01:33:05;;;;;;;4.55;1.17;;;14.80;89.50;;;;;;4191086;28;20051;-60
2022/12/01 01:35:46;;;;;;;0.95;0.95;;;14.80;89.60;;;;;;4191613;28;20038;-60
2022/12/01 01:38:27;;;;;;;1.35;1.35;;;14.80;89.60;;;;;;4193145;28;20403;-59
2022/12/01 01:41:09;;;;;;;0.10;0.10;;;14.80;89.60;;;;;;4175994;28;20059;-60
2022/12/01 01:43:53;;;;;;;0.47;0.47;;;14.80;89.60;;;;;;4175851;28;20052;-60
2022/12/01 01:46:35;;;;;;;1.67;1.58;;;14.80;89.70;;;;;;4176388;28;20470;-60
2022/12/01 01:49:16;;;;;;;0.98;0.95;;;14.80;89.80;;;;;;4176353;28;20047;-59
2022/12/01 01:51:57;;;;;;;4.85;1.60;;;14.80;89.80;;;;;;4192543;28;20477;-60
2022/12/01 01:54:42;;;;;;;2.30;1.45;;;14.70;89.70;;;;;;4190765;28;20142;-59
2022/12/01 01:57:27;;;;;;;1.00;1.00;;;14.80;90.00;;;;;;4192354;28;20219;-59
2022/12/01 02:00:12;;;;;;;3.03;2.75;;;14.90;90.00;;;;;;4190099;28;20193;-59
2022/12/01 02:02:54;;;;;;;2.83;2.58;;;14.90;89.60;;;;;;4191345;28;20067;-60
2022/12/01 02:05:37;;;;;;;0.50;0.50;;;15.00;89.20;;;;;;4192138;28;20570;-60
2022/12/01 02:08:18;;;;;;;1.20;1.20;;;15.10;88.80;;;;;;4192389;28;20186;-60
2022/12/01 02:11:24;;;;;;;4.88;2.45;;;15.20;88.50;;;;;;4206421;28;20055;-59
2022/12/01 02:14:11;;;;;;;0.20;0.20;;;15.20;88.20;;;;;;4208430;28;20046;-57
2022/12/01 02:17:01;;;;;;;0.00;0.00;;;15.30;88.10;;;;;;4191995;28;20109;-55
2022/12/01 02:19:58;;;;;;;5.15;0.88;;;15.30;87.70;;;;;;4159105;28;20188;-60
2022/12/01 02:22:53;;;;;;;0.85;0.85;;;15.30;87.40;;;;;;4158698;28;20111;-59
2022/12/01 02:25:48;;;;;;;1.05;1.05;;;15.40;87.10;;;;;;4158958;28;20052;-60
2022/12/01 02:28:52;;;;;;;1.10;1.10;;;15.40;87.00;;;;;;4176085;28;20102;-59
2022/12/01 02:31:40;;;;;;;0.05;0.05;;;15.40;87.00;;;;;;4190409;28;20185;-59
2022/12/01 02:34:29;;;;;;;0.25;0.25;;;15.40;88.00;;;;;;4158336;28;20409;-57
2022/12/01 02:37:23;;;;;;;0.15;0.15;;;15.50;87.00;;;;;;4158852;28;20496;-51
2022/12/01 02:40:12;;;;;;;2.08;1.92;;;15.50;86.70;;;;;;4164452;28;20145;-52
2022/12/01 02:43:02;;;;;;;0.63;0.63;;;15.60;86.40;;;;;;4191695;28;20186;-56
2022/12/01 02:45:48;;;;;;;0.10;0.10;;;15.70;86.20;;;;;;4191698;28;20182;-59
2022/12/01 02:48:32;;;;;;;0.98;0.98;;;15.70;86.10;;;;;;4190106;28;20054;-60
2022/12/01 02:51:18;;;;;;;0.55;0.55;;;15.70;85.90;;;;;;4191539;28;20051;-60
2022/12/01 02:54:01;;;;;;;1.13;1.05;;;15.70;85.90;;;;;;4190679;28;20059;-59
2022/12/01 02:56:44;;;;;;;2.55;2.45;;;15.70;85.90;;;;;;4191619;28;20491;-60
2022/12/01 02:59:26;;;;;;;1.55;1.50;;;15.60;86.00;;;;;;4174971;28;20052;-59
2022/12/01 03:02:14;;;;;;;0.80;0.80;;;15.60;86.10;;;;;;4184453;28;20418;-59
2022/12/01 03:05:01;;;;;;;1.95;1.85;;;15.70;86.10;;;;;;4191567;28;20527;-59
2022/12/01 03:07:59;;;;;;;1.20;1.20;;;15.70;86.00;;;;;;4197545;28;20470;-60
2022/12/01 03:10:48;;;;;;;0.13;0.13;;;15.70;85.90;;;;;;4207513;28;20190;-60
2022/12/01 03:13:39;;;;;;;3.75;1.30;;;15.70;85.80;;;;;;4208389;28;20426;-55
2022/12/01 03:16:27;;;;;;;2.45;1.63;;;15.70;85.90;;;;;;4211301;28;20140;-58
2022/12/01 03:19:13;;;;;;;3.05;2.85;;;15.70;85.80;;;;;;4177254;28;20052;-59
2022/12/01 03:22:02;;;;;;;2.65;1.63;;;15.70;86.40;;;;;;4178338;28;20079;-60
2022/12/01 03:24:46;;;;;;;5.00;2.75;;;15.80;85.40;;;;;;4192562;28;20052;-56
2022/12/01 03:27:31;;;;;;;0.10;0.10;;;15.80;85.40;;;;;;4177949;28;20052;-57
2022/12/01 03:30:13;;;;;;;4.18;2.30;;;15.80;85.30;;;;;;4177632;28;20102;-56
2022/12/01 03:33:00;;;;;;;0.30;0.30;;;15.80;85.00;;;;;;4178428;28;20198;-56
2022/12/01 03:35:44;;;;;;;1.27;1.00;;;15.90;84.70;;;;;;4183369;28;20074;-57
2022/12/01 03:38:30;;;;;;;0.45;0.45;;;15.90;84.50;;;;;;4210900;28;20051;-59
2022/12/01 03:41:16;;;;;;;0.52;0.52;;;15.90;84.50;;;;;;4210594;28;20563;-59
2022/12/01 03:44:03;;;;;;;0.63;0.63;;;15.90;84.60;;;;;;4211145;28;20059;-59
2022/12/01 03:46:49;;;;;;;0.80;0.80;;;15.90;84.60;;;;;;4210971;28;20105;-60
2022/12/01 03:49:30;;;;;;;1.92;1.83;;;15.90;84.60;;;;;;4194724;28;20055;-60
2022/12/01 03:52:15;;;;;;;;;;;15.80;84.60;;;;;;4193605;28;20063;-59
2022/12/01 03:55:10;;;;;;;1.20;1.17;;;15.80;84.90;;;;;;4193742;28;19932;-60
2022/12/01 03:57:56;;;;;;;1.17;1.10;;;15.70;85.10;;;;;;4210636;28;20181;-59
2022/12/01 04:00:38;;;;;;;0.22;0.22;;;15.70;85.40;;;;;;4203971;28;20076;-60
2022/12/01 04:03:23;;;;;;;0.32;0.32;;;15.70;85.60;;;;;;4194364;28;20505;-59
2022/12/01 04:06:05;;;;;;;3.30;3.00;;;15.70;85.60;;;;;;4194189;28;20415;-60
2022/12/01 04:08:46;;;;;;;0.10;0.10;;;15.80;85.40;;;;;;4193817;28;20434;-60
2022/12/01 04:14:26;;;;;;;1.52;1.45;;;15.80;85.20;;;;;;4177275;28;20048;-60
2022/12/01 04:17:07;;;;;;;1.90;1.85;;;15.80;85.10;;;;;;4177268;28;20048;-60
2022/12/01 04:19:48;;;;;;;0.17;0.17;;;15.90;84.90;;;;;;4177468;28;20106;-60
2022/12/01 04:22:29;;;;;;;1.08;0.73;;;15.90;84.80;;;;;;4177186;28;20166;-60
2022/12/01 04:25:11;;;;;;;0.40;0.40;;;15.90;84.80;;;;;;4200813;28;20043;-60
2022/12/01 04:27:53;;;;;;;1.75;1.27;;;15.90;84.80;;;;;;4210033;28;20108;-60
2022/12/01 04:30:34;;;;;;;1.30;1.20;;;15.90;84.60;;;;;;4210060;28;20066;-56
2022/12/01 04:33:14;;;;;;;0.47;0.47;;;16.00;84.60;;;;;;4210288;28;20059;-59
2022/12/01 04:35:59;;;;;;;0.10;0.10;;;16.00;84.40;;;;;;4206726;28;20113;-60
2022/12/01 04:38:40;;;;;;;0.20;0.20;;;16.00;84.40;;;;;;4193150;28;20052;-59
2022/12/01 04:41:21;;;;;;;5.25;4.80;;;16.00;84.40;;;;;;4193239;28;20047;-59
2022/12/01 04:44:04;;;;;;;;;;;16.00;84.20;;;;;;4197552;28;20047;-60
2022/12/01 04:46:45;;;;;;;1.23;0.85;;;16.00;84.00;;;;;;4210000;28;20008;-59
2022/12/01 04:49:26;;;;;;;1.13;1.13;;;16.00;83.80;;;;;;4209881;28;20105;-59
2022/12/01 04:52:07;;;;;;;0.32;0.32;;;16.00;83.90;;;;;;4210135;28;20660;-59
2022/12/01 04:54:48;;;;;;;0.15;0.15;;;16.00;84.10;;;;;;4201211;28;20059;-59
2022/12/01 04:57:29;;;;;;;0.77;0.77;;;16.00;84.30;;;;;;4208995;28;20055;-60
2022/12/01 05:00:13;;;;;;;0.68;0.68;;;15.90;84.30;;;;;;4209623;28;20198;-59
2022/12/01 05:02:53;;;;;;;1.05;1.05;;;15.90;84.60;;;;;;4209668;28;20429;-59
2022/12/01 05:05:34;;;;;;;2.83;1.35;;;15.90;84.80;;;;;;4176500;28;20137;-57
2022/12/01 05:08:15;;;;;;;1.92;1.17;;;15.90;84.60;;;;;;4175640;28;20063;-56
2022/12/01 05:10:56;;;;;;;0.95;0.88;;;15.90;84.40;;;;;;4176629;28;20179;-55
2022/12/01 05:13:38;;;;;;;0.77;0.77;;;16.00;84.30;;;;;;4181864;28;20213;-56
2022/12/01 05:16:22;;;;;;;0.80;0.80;;;16.00;84.30;;;;;;4185630;28;20190;-59
2022/12/01 05:22:03;;;;;;;0.10;0.10;;;16.10;84.10;;;;;;4181890;28;20051;-60
2022/12/01 05:24:45;;;;;;;1.08;1.08;;;16.00;83.90;;;;;;4192759;28;20075;-59
2022/12/01 05:27:26;;;;;;;7.05;1.40;;;16.10;83.90;;;;;;4176372;28;20114;-59
2022/12/01 05:30:08;;;;;;;2.35;2.25;;;16.10;84.80;;;;;;4175707;28;20076;-59
2022/12/01 05:32:51;;;;;;;0.65;0.65;;;16.10;83.80;;;;;;4176535;28;20099;-59
2022/12/01 05:35:33;;;;;;;2.03;1.92;;;16.10;83.80;;;;;;4176597;28;20051;-59
2022/12/01 05:38:14;;;;;;;0.30;0.30;;;16.10;83.90;;;;;;4174999;28;20130;-53
2022/12/01 05:40:55;;;;;;;;;;;16.00;84.00;;;;;;4176382;28;20819;-53
2022/12/01 05:43:36;;;;;;;0.00;0.00;;;16.00;84.20;;;;;;4184196;28;19942;-56
2022/12/01 05:46:17;;;;;;;0.65;0.65;;;16.00;84.10;;;;;;4209257;28;20445;-53
2022/12/01 05:48:59;;;;;;;0.75;0.75;;;16.00;84.10;;;;;;4192383;28;20051;-59
2022/12/01 05:51:40;;;;;;;8.88;4.47;;;16.00;84.10;;;;;;4191703;28;20047;-59
2022/12/01 05:54:21;;;;;;;1.67;0.90;;;16.00;84.00;;;;;;4190896;28;20085;-59
2022/12/01 05:57:02;;;;;;;0.60;0.57;;;16.10;83.90;;;;;;4192368;28;20121;-59
2022/12/01 05:59:43;;;;;;;0.57;0.57;;;16.10;83.70;;;;;;4191470;28;20513;-60
2022/12/01 06:02:25;;;;;;;0.15;0.15;;;16.10;83.60;;;;;;4191989;28;20052;-58
2022/12/01 06:05:09;;;;;;;0.00;0.00;;;16.10;83.60;;;;;;4175568;28;20052;-62
2022/12/01 06:07:50;;;;;;;9.23;2.17;;;16.20;83.40;;;;;;4175120;28;20435;-62
2022/12/01 06:10:31;;;;;;;0.63;0.63;;;16.20;83.30;;;;;;4175085;28;20178;-60
2022/12/01 06:13:12;;;;;;;2.25;2.15;;;16.30;83.30;;;;;;4184872;28;20132;-60
2022/12/01 06:15:57;;;;;;;3.80;2.53;;;16.20;83.20;;;;;;4208341;28;20054;-59
2022/12/01 06:18:39;;;;;;;0.75;0.75;;;16.20;83.40;;;;;;4192721;28;20044;-60
2022/12/01 06:21:21;;;;;;;0.25;0.25;;;16.10;83.50;;;;;;4191383;28;20055;-59
2022/12/01 06:24:02;;;;;;;0.52;0.50;;;16.20;83.60;;;;;;4201885;28;20129;-59
2022/12/01 06:26:43;;;;;;;0.13;0.13;;;16.20;83.30;;;;;;4208826;28;20050;-59
2022/12/01 06:29:24;;;;;;;2.05;2.00;;;16.20;83.20;;;;;;4208321;28;20050;-59
2022/12/01 06:32:05;;;;;;;0.52;0.52;;;16.20;83.10;;;;;;4208374;28;20514;-60
2022/12/01 06:34:46;;;;;;;0.88;0.88;;;16.30;83.10;;;;;;4205216;28;20059;-60
2022/12/01 06:37:28;;;;;;;0.75;0.75;;;16.30;82.90;;;;;;4191689;28;20046;-60
2022/12/01 06:40:11;;;;;;;0.98;0.95;;;16.30;82.80;;;;;;4191537;28;20055;-60
2022/12/01 06:42:52;;;;;;;2.75;1.38;;;16.30;82.80;;;;;;4194518;28;20058;-56
2022/12/01 06:45:33;;;;;;;0.38;0.38;;;16.30;83.80;;;;;;4208283;28;20058;-56
2022/12/01 06:48:14;;;;;;;2.40;2.20;;;16.20;83.00;;;;;;4196034;28;20093;-54
2022/12/01 06:50:57;;;;;;;0.10;0.10;;;16.20;83.30;;;;;;4191498;28;20056;-56
2022/12/01 06:53:39;;;;;;;0.00;0.00;;;16.10;83.50;;;;;;4191686;28;20054;-60
2022/12/01 06:56:20;;;;;;;0.88;0.88;;;16.10;83.80;;;;;;4191171;28;20054;-55
2022/12/01 06:59:01;;;;;;;0.30;0.30;;;16.10;84.00;;;;;;4190874;28;20067;-56
2022/12/01 07:01:42;;;;;;;1.17;1.10;;;16.10;84.20;;;;;;4190979;28;20056;-55
2022/12/01 07:04:23;;;;;;;0.20;0.20;;;16.20;84.10;;;;;;4174984;28;20060;-55
2022/12/01 07:07:05;;;;;;;0.68;0.68;;;16.20;83.90;;;;;;4178147;28;20055;-56
2022/12/01 07:09:47;;;;;;;0.52;0.52;;;16.20;83.90;;;;;;4183461;28;20205;-57
2022/12/01 07:12:30;;;;;;;0.25;0.25;;;16.10;83.80;;;;;;4206695;28;20047;-55
2022/12/01 07:15:12;;;;;;;1.77;1.75;;;16.20;83.80;;;;;;4207987;28;20403;-51
2022/12/01 07:17:53;;;;;;;;;;;16.20;83.80;;;;;;4198967;28;20210;-60
2022/12/01 07:20:34;;;;;;;4.13;1.23;;;16.20;83.70;;;;;;4189786;28;19931;-60
2022/12/01 07:23:14;;;;;;;1.02;1.02;;;16.10;83.60;;;;;;4174615;28;20118;-59
2022/12/01 07:26:00;;;;;;;4.45;2.45;;;16.10;83.70;;;;;;4188689;28;20054;-60
2022/12/01 07:28:42;;;;;;;1.58;1.48;;;16.10;83.90;;;;;;4207860;28;20169;-54
2022/12/01 07:31:22;;;;;;;0.93;0.93;;;16.00;84.90;;;;;;4207290;28;20051;-54
2022/12/01 07:34:04;;;;;;;0.25;0.25;;;15.90;84.20;;;;;;4207373;28;20059;-55
2022/12/01 07:36:45;;;;;;;0.10;0.10;;;15.90;84.50;;;;;;4207641;28;20097;-55
2022/12/01 07:39:26;;;;;;;0.10;0.10;;;15.90;85.60;;;;;;4203430;28;20597;-54
2022/12/01 07:42:09;;;;;;;1.38;1.27;;;15.80;85.00;;;;;;4174697;28;20055;-54
2022/12/01 07:44:49;;;;;;;0.10;0.10;;;15.90;85.00;;;;;;4200339;28;20047;-60
2022/12/01 07:47:30;;;;;;;1.70;1.60;;;15.90;84.80;;;;;;4184833;28;20059;-60
2022/12/01 07:50:12;;;;;;;1.80;1.65;;;15.90;84.50;;;;;;4173441;28;20052;-60
2022/12/01 07:52:53;;;;;;;;;;;16.00;84.40;;;;;;4175162;28;20126;-60
2022/12/01 07:55:34;;;;;;;0.63;0.63;;;16.00;84.20;;;;;;4169038;28;20329;-60
2022/12/01 07:58:16;;;;;;;0.47;0.47;;;16.10;85.00;;;;;;4174504;28;20118;-60
2022/12/01 08:00:58;;;;;;;1.33;1.25;;;16.00;83.90;;;;;;4174733;28;20392;-59
2022/12/01 08:03:39;;;;;;;1.00;1.00;;;16.00;83.90;;;;;;4177006;28;20412;-60
2022/12/01 08:06:21;;;;;;;1.25;1.17;;;16.00;84.40;;;;;;4192371;28;20056;-59
2022/12/01 08:09:02;;;;;;;2.78;2.05;;;16.00;84.90;;;;;;4193369;28;20085;-59
2022/12/01 08:11:43;;;;;;;1.85;1.85;;;16.10;85.10;;;;;;4193860;28;20051;-59
2022/12/01 08:14:25;;;;;;;0.00;0.00;;;16.10;85.50;;;;;;4194395;28;20043;-59
2022/12/01 08:17:06;;;;;;;0.63;0.63;;;16.10;85.90;;;;;;4193560;28;20067;-59
2022/12/01 08:19:47;;;;;;;1.98;1.88;;;16.10;86.10;;;;;;4192461;28;20109;-60
2022/12/01 08:22:28;;;;;;;1.38;1.38;;;16.10;86.30;;;;;;4196862;27;20129;-60
2022/12/01 08:25:09;;;;;;;0.10;0.10;;;16.10;86.50;;;;;;4176710;28;20056;-60
2022/12/01 08:27:50;;;;;;;12.98;1.85;;;16.10;86.60;;;;;;4175175;28;20515;-60
2022/12/01 08:30:32;;;;;;;1.45;1.40;;;16.10;86.70;;;;;;4176607;28;20047;-60
2022/12/01 08:33:13;;;;;;;1.00;0.98;;;16.10;86.60;;;;;;4182823;28;20055;-58
2022/12/01 08:35:54;;;;;;;0.87;0.87;;;16.10;86.50;;;;;;4208619;28;20063;-60
2022/12/01 08:38:35;;;;;;;0.90;0.90;;;16.10;86.30;;;;;;4210058;28;20063;-59
2022/12/01 08:41:16;;;;;;;3.58;2.70;;;16.00;87.20;;;;;;4209037;28;20051;-59
2022/12/01 08:43:58;;;;;;;5.28;2.47;;;16.00;86.50;;;;;;4208089;28;20051;-59
2022/12/01 08:46:40;;;;;;;2.25;2.15;;;15.90;86.60;;;;;;4193131;28;20047;-58
2022/12/01 08:49:21;;;;;;;1.52;1.35;;;15.90;86.80;;;;;;4160408;28;20488;-58
2022/12/01 08:52:02;;;;;;;0.77;0.77;;;15.80;87.00;;;;;;4173983;28;20056;-54
2022/12/01 08:54:43;;;;;;;0.15;0.15;;;15.80;87.10;;;;;;4160104;28;20048;-54
2022/12/01 08:57:24;;;;;;;0.55;0.55;;;15.70;88.10;;;;;;4160141;28;20135;-57
2022/12/01 09:00:07;;;;;;;6.18;1.48;;;15.80;87.20;;;;;;4178339;28;20138;-55
2022/12/01 09:02:50;;;;;;;1.48;1.45;;;15.80;86.90;;;;;;4189650;28;20130;-56
2022/12/01 09:05:30;;;;;;;0.38;0.38;;;15.90;86.80;;;;;;4192480;28;20059;-56
2022/12/01 09:11:13;;;;;;;1.75;1.65;;;15.90;86.50;;;;;;4195157;28;20058;-56
2022/12/01 09:13:54;;;;;;;0.10;0.10;;;15.90;86.30;;;;;;4194137;28;20059;-56
2022/12/01 09:16:36;;;;;;;1.10;1.10;;;15.90;86.20;;;;;;4192385;28;20178;-56
2022/12/01 09:19:20;;;;;;;0.95;0.95;;;15.90;86.70;;;;;;4175932;28;20075;-56
2022/12/01 09:22:05;;;;;;;0.82;0.82;;;15.90;86.10;;;;;;4176133;28;20056;-53
2022/12/01 09:24:46;;;;;;;1.55;1.45;;;15.90;86.00;;;;;;4192105;28;20063;-56
2022/12/01 09:27:26;;;;;;;0.30;0.30;;;15.90;86.00;;;;;;4192782;28;20047;-55
2022/12/01 09:30:08;;;;;;;2.05;1.95;;;15.80;86.10;;;;;;4192599;28;20051;-56
2022/12/01 09:32:49;;;;;;;0.20;0.20;;;15.80;86.30;;;;;;4197289;28;20050;-54
2022/12/01 09:35:32;;;;;;;0.00;0.00;;;15.80;86.20;;;;;;4208962;28;20501;-56
2022/12/01 09:38:13;;;;;;;0.52;0.52;;;15.70;86.40;;;;;;4205201;28;20112;-53
2022/12/01 09:40:56;;;;;;;1.27;0.57;;;15.80;86.60;;;;;;4192587;28;20047;-57
2022/12/01 09:43:40;;;;;;;0.63;0.63;;;15.80;86.40;;;;;;4192458;28;20597;-54
2022/12/01 09:46:25;;;;;;;0.38;0.38;;;15.90;86.10;;;;;;4207656;28;20104;-59
2022/12/01 09:49:12;;;;;;;0.93;0.93;;;15.90;85.90;;;;;;4192182;28;20055;-59
2022/12/01 09:51:55;;;;;;;0.00;0.00;;;16.00;85.90;;;;;;4192068;28;20407;-59
2022/12/01 09:54:35;;;;;;;1.10;1.00;;;15.90;85.90;;;;;;4193646;28;20039;-59
2022/12/01 09:57:30;;;;;;;0.00;0.00;;;15.90;85.90;;;;;;4202360;28;20056;-59
2022/12/01 10:00:14;;;;;;;0.45;0.45;;;15.90;86.10;;;;;;4194860;28;20051;-58
2022/12/01 10:03:00;;;;;;;0.32;0.32;;;15.80;86.20;;;;;;4159041;28;20063;-59
2022/12/01 10:05:48;;;;;;;0.00;0.00;;;15.80;86.40;;;;;;4167348;28;20059;-59
2022/12/01 10:08:56;;;;;;;0.50;0.50;;;15.80;86.30;;;;;;4175664;28;20055;-59
2022/12/01 10:11:40;;;;;;;0.93;0.93;;;15.80;85.90;;;;;;4188972;28;20179;-59
2022/12/01 10:14:21;;;;;;;1.98;1.55;;;15.80;86.00;;;;;;4174406;28;20056;-59
2022/12/01 10:17:12;;;;;;;0.25;0.25;;;15.80;86.00;;;;;;4176667;28;20111;-59
2022/12/01 10:19:58;;;;;;;0.70;0.70;;;15.70;85.90;;;;;;4191237;28;20068;-57
2022/12/01 10:23:08;;;;;;;2.15;1.85;;;15.70;85.80;;;;;;4191912;28;20060;-58
2022/12/01 10:25:57;;;;;;;0.10;0.10;;;15.70;86.80;;;;;;4196628;28;20070;-58
2022/12/01 10:28:52;;;;;;;1.08;0.30;;;15.70;87.30;;;;;;4175180;28;20183;-58
2022/12/01 10:31:38;;;;;;;2.72;2.17;;;15.60;86.80;;;;;;4174609;28;20511;-59
2022/12/01 10:34:22;;;;;;;2.85;2.28;;;15.60;87.00;;;;;;4174870;28;20048;-59
2022/12/01 10:37:03;;;;;;;0.00;0.00;;;15.60;87.00;;;;;;4174734;28;20083;-59
2022/12/01 10:39:48;;;;;;;0.22;0.22;;;15.50;86.90;;;;;;4174745;28;20097;-59
2022/12/01 10:42:36;;;;;;;0.30;0.30;;;15.50;86.80;;;;;;4172218;28;20101;-58
2022/12/01 10:45:21;;;;;;;1.30;1.27;;;15.50;86.60;;;;;;4173214;28;20191;-60
2022/12/01 10:48:14;;;;;;;0.57;0.57;;;15.50;86.40;;;;;;4174508;28;20064;-59
2022/12/01 10:50:56;;;;;;;0.45;0.45;;;15.60;86.20;;;;;;4196250;28;20054;-57
2022/12/01 10:53:37;;;;;;;0.43;0.43;;;15.70;85.90;;;;;;4193003;28;20117;-59
2022/12/01 10:56:21;;;;;;;6.90;3.55;;;15.70;85.60;;;;;;4192297;28;20056;-59
2022/12/01 10:59:15;;;;;;;4.78;3.50;;;15.80;85.30;;;;;;4191588;28;20057;-60
2022/12/01 11:01:58;;;;;;;0.38;0.38;;;15.80;85.10;;;;;;4204872;28;20190;-55
2022/12/01 11:04:44;;;;;;;0.22;0.22;;;15.80;85.00;;;;;;4205537;28;20047;-57
2022/12/01 11:07:28;;;;;;;0.43;0.43;;;15.80;84.80;;;;;;4181854;28;20079;-55
2022/12/01 11:10:20;;;;;;;1.13;1.13;;;15.80;84.60;;;;;;4191098;28;20127;-54
2022/12/01 11:13:05;;;;;;;1.85;1.60;;;15.80;84.50;;;;;;4194683;28;20391;-56
2022/12/01 11:15:52;;;;;;;0.65;0.60;;;15.80;84.70;;;;;;4204267;28;20399;-56
2022/12/01 11:18:34;;;;;;;1.38;1.38;;;15.70;84.70;;;;;;4193276;28;20059;-59
2022/12/01 11:21:27;;;;;;;0.98;0.98;;;15.70;84.50;;;;;;4202141;28;20048;-59
2022/12/01 11:24:26;;;;;;;0.77;0.75;;;15.60;84.60;;;;;;4174559;28;20055;-58
2022/12/01 11:27:16;;;;;;;0.20;0.20;;;15.50;84.60;;;;;;4174408;28;20044;-59
2022/12/01 11:30:01;;;;;;;0.30;0.30;;;15.50;84.60;;;;;;4174047;28;20580;-59
2022/12/01 11:32:52;;;;;;;8.30;3.20;;;15.40;84.80;;;;;;4183217;28;20048;-59
2022/12/01 11:35:37;;;;;;;0.52;0.52;;;15.40;85.20;;;;;;4191620;28;21025;-59
2022/12/01 11:38:21;;;;;;;2.67;2.47;;;15.40;85.30;;;;;;4194591;28;20119;-59
2022/12/01 11:41:26;;;;;;;0.15;0.15;;;15.40;85.30;;;;;;4187136;28;20089;-57
2022/12/01 11:44:18;;;;;;;1.15;0.90;;;15.50;85.00;;;;;;4194023;28;20127;-59
2022/12/01 11:47:20;;;;;;;2.50;2.40;;;15.50;84.70;;;;;;4188294;28;20052;-61
2022/12/01 11:50:25;;;;;;;0.47;0.45;;;15.50;84.90;;;;;;4194037;28;20059;-59
2022/12/01 11:53:27;;;;;;;3.28;0.73;;;15.60;85.00;;;;;;4176795;28;20150;-60
2022/12/01 11:56:15;;;;;;;;;;;15.60;85.30;;;;;;4161110;28;20067;-63
2022/12/01 11:59:01;;;;;;;0.75;0.75;;;15.60;84.20;;;;;;4161097;28;19928;-60
2022/12/01 12:01:52;;;;;;;1.63;1.52;;;15.60;83.90;;;;;;4169136;28;20107;-61
2022/12/01 12:04:54;;;;;;;0.32;0.32;;;15.60;83.80;;;;;;4177599;28;20048;-59
2022/12/01 12:07:47;;;;;;;0.08;0.08;;;15.60;84.00;;;;;;4192564;28;20071;-59
2022/12/01 12:10:39;;;;;;;0.10;0.10;;;15.70;83.70;;;;;;4191724;28;20052;-59
2022/12/01 12:13:50;;;;;;;1.75;1.65;;;15.70;83.50;;;;;;4177383;28;20043;-59
2022/12/01 12:16:47;;;;;;;0.05;0.05;;;15.70;83.20;;;;;;4176740;28;20080;-59
2022/12/01 12:19:52;;;;;;;0.52;0.52;;;15.70;82.80;;;;;;4177228;28;20055;-60
2022/12/01 12:23:02;;;;;;;0.10;0.10;;;15.70;82.70;;;;;;4192273;28;20048;-59
2022/12/01 12:25:54;;;;;;;1.42;1.35;;;15.60;82.80;;;;;;4198784;27;20156;-59
2022/12/01 12:28:50;;;;;;;0.20;0.20;;;15.60;82.90;;;;;;4193525;28;20075;-59
2022/12/01 12:31:37;;;;;;;1.95;1.88;;;15.50;83.00;;;;;;4192657;28;20062;-58
2022/12/01 12:34:35;;;;;;;0.75;0.73;;;15.50;83.10;;;;;;4204787;28;20497;-59
2022/12/01 12:37:22;;;;;;;1.88;1.77;;;15.40;83.30;;;;;;4188193;28;20056;-59
2022/12/01 12:40:26;;;;;;;0.90;0.90;;;15.40;83.70;;;;;;4176626;28;20072;-59
2022/12/01 12:43:21;;;;;;;0.73;0.73;;;15.40;83.50;;;;;;4176540;28;20353;-59
2022/12/01 12:46:06;;;;;;;0.00;0.00;;;15.50;83.30;;;;;;4184980;28;20046;-59
2022/12/01 12:49:02;;;;;;;0.13;0.13;;;15.50;83.20;;;;;;4210389;27;20047;-59
2022/12/01 12:52:01;;;;;;;;;;;15.60;84.30;;;;;;4210624;27;20671;-59
2022/12/01 12:54:52;;;;;;;0.32;0.32;;;15.60;83.10;;;;;;4210158;27;20477;-59
2022/12/01 12:57:36;;;;;;;1.65;1.65;;;15.60;83.10;;;;;;4176878;28;20056;-59
2022/12/01 13:00:19;;;;;;;2.28;2.17;;;15.60;83.00;;;;;;4176581;28;20610;-59
2022/12/01 13:03:04;;;;;;;0.10;0.10;;;15.60;83.00;;;;;;4176476;28;20060;-58
2022/12/01 13:05:50;;;;;;;0.20;0.20;;;15.60;82.80;;;;;;4190113;28;20144;-59
2022/12/01 13:08:37;;;;;;;2.60;1.95;;;15.60;82.50;;;;;;4203250;28;20490;-59
2022/12/01 13:11:23;;;;;;;3.47;0.55;;;15.60;82.50;;;;;;4176634;28;20127;-59
2022/12/01 13:14:13;;;;;;;0.32;0.32;;;15.70;82.60;;;;;;4176695;28;20063;-59
2022/12/01 13:16:58;;;;;;;1.85;1.85;;;15.80;82.10;;;;;;4206650;28;20070;-59
2022/12/01 13:19:43;;;;;;;2.28;2.00;;;15.80;81.60;;;;;;4192907;28;20055;-60
2022/12/01 13:22:29;;;;;;;0.35;0.35;;;15.90;81.40;;;;;;4197831;28;20070;-57
2022/12/01 13:25:14;;;;;;;0.57;0.55;;;15.90;81.40;;;;;;4193459;28;20060;-57
2022/12/01 13:27:56;;;;;;;0.20;0.20;;;15.90;81.40;;;;;;4193202;28;20051;-55
2022/12/01 13:30:39;;;;;;;0.68;0.68;;;15.90;81.30;;;;;;4192757;28;20055;-55
2022/12/01 13:33:22;;;;;;;1.05;0.98;;;15.90;81.20;;;;;;4193101;28;20055;-57
2022/12/01 13:36:09;;;;;;;2.10;1.75;;;15.90;81.20;;;;;;4192434;28;20055;-58
2022/12/01 13:39:19;;;;;;;0.00;0.00;;;15.80;81.70;;;;;;4175782;28;20596;-59
2022/12/01 13:42:03;;;;;;;0.05;0.05;;;15.90;80.80;;;;;;4181522;28;20102;-59
2022/12/01 13:44:51;;;;;;;1.55;1.55;;;15.90;81.60;;;;;;4191312;28;20047;-58
2022/12/01 13:47:47;;;;;;;0.98;0.98;;;15.90;80.70;;;;;;4192777;28;20044;-60
2022/12/01 13:51:01;;;;;;;0.55;0.55;;;15.90;80.70;;;;;;4191968;28;20081;-59
2022/12/01 13:53:57;;;;;;;0.25;0.25;;;15.90;80.10;;;;;;4175563;28;20098;-59
2022/12/01 13:56:46;;;;;;;1.75;1.25;;;16.00;80.00;;;;;;4175066;28;20492;-59
2022/12/01 14:00:21;;;;;;;0.30;0.30;;;16.00;80.20;;;;;;4175019;28;20059;-59
2022/12/01 14:03:37;;;;;;;2.08;1.00;;;16.00;80.10;;;;;;4164742;28;20052;-59
2022/12/01 14:06:27;;;;;;;0.20;0.20;;;16.00;80.20;;;;;;4159439;28;20114;-59
2022/12/01 14:09:18;;;;;;;9.13;2.78;;;16.00;80.00;;;;;;4174360;28;20179;-59
2022/12/01 14:12:03;;;;;;;0.28;0.28;;;16.00;79.90;;;;;;4176144;28;20474;-58
2022/12/01 14:14:52;;;;;;;5.93;2.22;;;16.00;79.90;;;;;;4191118;28;20054;-59
2022/12/01 14:17:36;;;;;;;1.73;1.63;;;16.00;79.60;;;;;;4191922;28;20046;-59
2022/12/01 14:20:21;;;;;;;8.98;3.55;;;16.00;79.60;;;;;;4200578;28;20055;-59
2022/12/01 14:23:11;;;;;;;1.00;1.00;;;16.00;79.60;;;;;;4191633;28;20093;-59
2022/12/01 14:26:09;;;;;;;1.83;1.77;;;16.00;79.50;;;;;;4191988;28;20088;-59
2022/12/01 14:29:24;;;;;;;0.50;0.50;;;15.90;79.60;;;;;;4192070;28;20511;-59
2022/12/01 14:32:22;;;;;;;3.65;1.95;;;15.80;80.00;;;;;;4206641;28;20055;-59
2022/12/01 14:35:08;;;;;;;0.38;0.38;;;15.90;80.20;;;;;;4207790;28;20065;-60